Brilliance Of The Seas — C6SJ5 — position and weather

sailwx.info

Track history (hours):
 
Tides and Currents Weather Stations Pressure Air Temp Water Temp Dewpoint Dewpoint Depression Visibility Wind Speed Wind Dir Waves Ship Positions

Brilliance Of The Seas

Operator: Royal Caribbean Cruises Ltd

Last reported at 2018-Oct-24 00:39 UTC. Time now 2018-Oct-24 05:29 UTC.
Position N 20°34' W 086°58'.

Type: Ship. MMSI: 311361000.

Date/timePositionNaut miles runAvg speedWind from/ knotsBaromVisibWave heightAir tempDewpointWater temp
2018-Oct-24 00:39N 20°34' W 086°58'215.6
2018-Oct-24 00:30N 20°32' W 086°59'3 7.3
2018-Oct-24 00:03N 20°29' W 086°59'0 0.0
2018-Oct-24 00:00N 20°29' W 086°59'0 0.0
2018-Oct-23 23:30N 20°29' W 086°59'0 0.0
2018-Oct-23 23:03N 20°29' W 086°59'0 0.0
2018-Oct-23 23:00N 20°29' W 086°59'0 0.0
2018-Oct-23 22:30N 20°29' W 086°59'0 0.0
2018-Oct-23 22:03N 20°29' W 086°59'0 0.0
2018-Oct-23 22:00N 20°29' W 086°59'0 0.0
2018-Oct-23 21:30N 20°29' W 086°59'0 0.0
2018-Oct-23 21:03N 20°29' W 086°59'0 0.1
2018-Oct-23 21:00N 20°29' W 086°59'0 0.0
2018-Oct-23 20:30N 20°29' W 086°59'0 0.0
2018-Oct-23 20:00N 20°29' W 086°59'0 0.0
2018-Oct-23 19:30N 20°29' W 086°59'0 0.0
2018-Oct-23 19:03N 20°29' W 086°59'0 0.0
2018-Oct-23 19:00N 20°29' W 086°59'0 0.0
2018-Oct-23 18:30N 20°29' W 086°59'0 0.0
2018-Oct-23 18:03N 20°29' W 086°59'0 0.0
2018-Oct-23 18:00N 20°29' W 086°59'0 0.0
2018-Oct-23 17:30N 20°29' W 086°59'0 0.0
2018-Oct-23 17:03N 20°29' W 086°59'0 0.0
2018-Oct-23 17:00N 20°29' W 086°59'0 0.0
2018-Oct-23 16:27N 20°29' W 086°59'0 0.0
2018-Oct-23 16:03N 20°29' W 086°59'0 0.0
2018-Oct-23 15:57N 20°29' W 086°59'0 0.0
2018-Oct-23 15:27N 20°29' W 086°59'0 0.0
2018-Oct-23 15:03N 20°29' W 086°59'0 0.0
2018-Oct-23 15:00N 20°29' W 086°59'1 1.7
2018-Oct-23 14:30N 20°30' W 086°59'24019.2
2018-Oct-23 02:00N 19°42' W 082°48'103 4.3 050 / 131016.510.8 28.025.229.0
2018-Oct-22 02:00N 20°54' W 084°06'15312.7 050 / 181016.510.8 28.025.229.0
2018-Oct-21 14:00N 23°24' W 084°36'187 5.2 080 / 201018.5 5.4 27.027.028.0
2018-Oct-20 02:00N 26°24' W 083°42'39214.2 360 / 121020.510.8 27.024.129.0
2018-Oct-18 22:25N 20°35' W 086°58'514.1
2018-Oct-18 22:03N 20°30' W 086°59'0 9.2
2018-Oct-18 22:01N 20°30' W 086°59'1 1.5
2018-Oct-18 21:28N 20°29' W 086°59'0 0.0
2018-Oct-18 20:55N 20°29' W 086°59'0 0.0
2018-Oct-18 20:28N 20°29' W 086°59'0 0.0
2018-Oct-18 20:01N 20°29' W 086°59'0 0.0
2018-Oct-18 19:58N 20°29' W 086°59'0 0.0
2018-Oct-18 19:28N 20°29' W 086°59'0 0.0
2018-Oct-18 18:58N 20°29' W 086°59'0 0.0
2018-Oct-18 18:28N 20°29' W 086°59'0 0.0
2018-Oct-18 18:01N 20°29' W 086°59'0 0.0
2018-Oct-18 17:58N 20°29' W 086°59'0 0.0
2018-Oct-18 17:28N 20°29' W 086°59'0 0.0
2018-Oct-18 17:01N 20°29' W 086°59'0 0.0
2018-Oct-18 16:55N 20°29' W 086°59'0 0.0
2018-Oct-18 16:28N 20°29' W 086°59'0 0.0
2018-Oct-18 16:01N 20°29' W 086°59'0 0.1
2018-Oct-18 15:58N 20°29' W 086°59'0 0.0
2018-Oct-18 15:28N 20°29' W 086°59'0 0.0
2018-Oct-18 15:01N 20°29' W 086°59'7236.7
2018-Oct-18 15:00N 20°24' W 086°54'7282.3 090 / 121018.2 30.023.829.6
2018-Oct-18 14:58N 20°29' W 086°59'0 0.0
2018-Oct-18 14:28N 20°29' W 086°59'0 0.0
2018-Oct-18 13:58N 20°29' W 086°59'0 0.0
2018-Oct-18 13:25N 20°29' W 086°59'0 0.0
2018-Oct-18 13:01N 20°29' W 086°59'0 0.1
2018-Oct-18 12:58N 20°29' W 086°59'0 0.0
2018-Oct-18 12:28N 20°29' W 086°59'0 0.0
2018-Oct-18 12:01N 20°29' W 086°59'0 0.0
2018-Oct-18 11:58N 20°29' W 086°59'1 1.6
2018-Oct-18 11:30N 20°30' W 086°59'2 5.4
2018-Oct-18 11:03N 20°32' W 086°59'0 7.3
2018-Oct-18 11:00N 20°32' W 086°59'5 8.3
2018-Oct-18 10:27N 20°36' W 086°57'92 8.8
2018-Oct-18 00:00N 21°42' W 085°48'27011.3 050 / 111016.510.8 29.026.229.0
2018-Oct-17 00:00N 24°18' W 081°48'150 7.1 090 / 201017.510.8 29.026.229.0
2018-Oct-16 03:00N 26°30' W 083°06'   050 / 151020.5 5.4 29.024.729.0
Track history (hours):
 
Tides and Currents Weather Stations Pressure Air Temp Water Temp Dewpoint Dewpoint Depression Visibility Wind Speed Wind Dir Waves Ship Positions

Brilliance Of The Seas

Operator: Royal Caribbean Cruises Ltd

Last reported at 2018-Oct-24 00:39 UTC. Time now 2018-Oct-24 05:29 UTC.
Position N 20°34' W 086°58'.

Type: Ship. MMSI: 311361000.

Date/timePositionNaut miles runAvg speedWind from/ knotsBaromVisibWave heightAir tempDewpointWater temp
2018-Oct-24 00:39N 20°34' W 086°58'215.6
2018-Oct-24 00:30N 20°32' W 086°59'3 7.3
2018-Oct-24 00:03N 20°29' W 086°59'0 0.0
2018-Oct-24 00:00N 20°29' W 086°59'0 0.0
2018-Oct-23 23:30N 20°29' W 086°59'0 0.0
2018-Oct-23 23:03N 20°29' W 086°59'0 0.0
2018-Oct-23 23:00N 20°29' W 086°59'0 0.0
2018-Oct-23 22:30N 20°29' W 086°59'0 0.0
2018-Oct-23 22:03N 20°29' W 086°59'0 0.0
2018-Oct-23 22:00N 20°29' W 086°59'0 0.0
2018-Oct-23 21:30N 20°29' W 086°59'0 0.0
2018-Oct-23 21:03N 20°29' W 086°59'0 0.1
2018-Oct-23 21:00N 20°29' W 086°59'0 0.0
2018-Oct-23 20:30N 20°29' W 086°59'0 0.0
2018-Oct-23 20:00N 20°29' W 086°59'0 0.0
2018-Oct-23 19:30N 20°29' W 086°59'0 0.0
2018-Oct-23 19:03N 20°29' W 086°59'0 0.0
2018-Oct-23 19:00N 20°29' W 086°59'0 0.0
2018-Oct-23 18:30N 20°29' W 086°59'0 0.0
2018-Oct-23 18:03N 20°29' W 086°59'0 0.0
2018-Oct-23 18:00N 20°29' W 086°59'0 0.0
2018-Oct-23 17:30N 20°29' W 086°59'0 0.0
2018-Oct-23 17:03N 20°29' W 086°59'0 0.0
2018-Oct-23 17:00N 20°29' W 086°59'0 0.0
2018-Oct-23 16:27N 20°29' W 086°59'0 0.0
2018-Oct-23 16:03N 20°29' W 086°59'0 0.0
2018-Oct-23 15:57N 20°29' W 086°59'0 0.0
2018-Oct-23 15:27N 20°29' W 086°59'0 0.0
2018-Oct-23 15:03N 20°29' W 086°59'0 0.0
2018-Oct-23 15:00N 20°29' W 086°59'1 1.7
2018-Oct-23 14:30N 20°30' W 086°59'24019.2
2018-Oct-23 02:00N 19°42' W 082°48'103 4.3 050 / 131016.510.8 28.025.229.0
2018-Oct-22 02:00N 20°54' W 084°06'15312.7 050 / 181016.510.8 28.025.229.0
2018-Oct-21 14:00N 23°24' W 084°36'187 5.2 080 / 201018.5 5.4 27.027.028.0
2018-Oct-20 02:00N 26°24' W 083°42'39214.2 360 / 121020.510.8 27.024.129.0
2018-Oct-18 22:25N 20°35' W 086°58'514.1
2018-Oct-18 22:03N 20°30' W 086°59'0 9.2
2018-Oct-18 22:01N 20°30' W 086°59'1 1.5
2018-Oct-18 21:28N 20°29' W 086°59'0 0.0
2018-Oct-18 20:55N 20°29' W 086°59'0 0.0
2018-Oct-18 20:28N 20°29' W 086°59'0 0.0
2018-Oct-18 20:01N 20°29' W 086°59'0 0.0
2018-Oct-18 19:58N 20°29' W 086°59'0 0.0
2018-Oct-18 19:28N 20°29' W 086°59'0 0.0
2018-Oct-18 18:58N 20°29' W 086°59'0 0.0
2018-Oct-18 18:28N 20°29' W 086°59'0 0.0
2018-Oct-18 18:01N 20°29' W 086°59'0 0.0
2018-Oct-18 17:58N 20°29' W 086°59'0 0.0
2018-Oct-18 17:28N 20°29' W 086°59'0 0.0
2018-Oct-18 17:01N 20°29' W 086°59'0 0.0
2018-Oct-18 16:55N 20°29' W 086°59'0 0.0
2018-Oct-18 16:28N 20°29' W 086°59'0 0.0
2018-Oct-18 16:01N 20°29' W 086°59'0 0.1
2018-Oct-18 15:58N 20°29' W 086°59'0 0.0
2018-Oct-18 15:28N 20°29' W 086°59'0 0.0
2018-Oct-18 15:01N 20°29' W 086°59'7236.7
2018-Oct-18 15:00N 20°24' W 086°54'7282.3 090 / 121018.2 30.023.829.6
2018-Oct-18 14:58N 20°29' W 086°59'0 0.0
2018-Oct-18 14:28N 20°29' W 086°59'0 0.0
2018-Oct-18 13:58N 20°29' W 086°59'0 0.0
2018-Oct-18 13:25N 20°29' W 086°59'0 0.0
2018-Oct-18 13:01N 20°29' W 086°59'0 0.1
2018-Oct-18 12:58N 20°29' W 086°59'0 0.0
2018-Oct-18 12:28N 20°29' W 086°59'0 0.0
2018-Oct-18 12:01N 20°29' W 086°59'0 0.0
2018-Oct-18 11:58N 20°29' W 086°59'1 1.6
2018-Oct-18 11:30N 20°30' W 086°59'2 5.4
2018-Oct-18 11:03N 20°32' W 086°59'0 7.3
2018-Oct-18 11:00N 20°32' W 086°59'5 8.3
2018-Oct-18 10:27N 20°36' W 086°57'92 8.8
2018-Oct-18 00:00N 21°42' W 085°48'27011.3 050 / 111016.510.8 29.026.229.0
2018-Oct-17 00:00N 24°18' W 081°48'150 7.1 090 / 201017.510.8 29.026.229.0
2018-Oct-16 03:00N 26°30' W 083°06'   050 / 151020.5 5.4 29.024.729.0

Dump ship's entire track history